Time;durP1;ratioP1;P1;durP2;ratioP2;P2;SDS_P1;SDS_P2;PMS_P1;PMS_P2;Temp;Humidity;BMP_temperature;BMP_pressure;BME280_temperature;BME280_humidity;BME280_pressure;Samples;Min_cycle;Max_cycle;Signal;HPM_P1;HPM_P2
2022/05/07 00:01:25;;;;;;;7.90;7.10;;;15.40;1.00;;;;;;5106056;28;20460;-59
2022/05/07 00:03:50;;;;;;;8.10;7.30;;;15.40;1.00;;;;;;5098865;28;20586;-59
2022/05/07 00:06:23;;;;;;;8.10;6.87;;;15.30;1.00;;;;;;5096993;28;20455;-59
2022/05/07 00:08:48;;;;;;;9.93;7.90;;;15.30;1.00;;;;;;5101149;28;20268;-58
2022/05/07 00:11:29;;;;;;;8.53;7.73;;;15.30;1.00;;;;;;5111321;28;20532;-59
2022/05/07 00:13:55;;;;;;;9.10;8.20;;;15.30;1.00;;;;;;5090929;28;20202;-58
2022/05/07 00:19:08;;;;;;;9.23;8.43;;;15.30;1.00;;;;;;5105031;28;20201;-58
2022/05/07 00:21:34;;;;;;;11.77;8.60;;;15.30;1.00;;;;;;5110355;28;20455;-58
2022/05/07 00:24:02;;;;;;;8.67;7.90;;;15.30;1.00;;;;;;5110346;28;20233;-59
2022/05/07 00:26:27;;;;;;;10.00;8.50;;;15.40;1.00;;;;;;5108061;28;20206;-57
2022/05/07 00:28:53;;;;;;;10.00;9.10;;;15.30;1.00;;;;;;5110541;28;20484;-57
2022/05/07 00:31:28;;;;;;;9.10;8.40;;;15.30;1.00;;;;;;5108137;28;20178;-58
2022/05/07 00:33:54;;;;;;;9.40;8.57;;;15.30;1.00;;;;;;5106329;28;20450;-58
2022/05/07 00:36:29;;;;;;;9.03;8.13;;;15.30;1.00;;;;;;5103657;28;20801;-57
2022/05/07 00:38:54;;;;;;;9.23;8.23;;;15.20;1.00;;;;;;5108072;28;20696;-57
2022/05/07 00:41:32;;;;;;;9.03;8.13;;;15.20;1.00;;;;;;5108812;28;20444;-58
2022/05/07 00:43:58;;;;;;;7.67;7.00;;;14.90;1.00;;;;;;5103582;28;20226;-58
2022/05/07 00:46:29;;;;;;;9.30;8.40;;;14.90;1.00;;;;;;5110253;28;20451;-58
2022/05/07 00:48:56;;;;;;;8.53;7.73;;;14.90;1.00;;;;;;5106377;28;20178;-58
2022/05/07 00:51:34;;;;;;;8.67;7.97;;;14.90;1.00;;;;;;5106415;28;20804;-57
2022/05/07 00:54:05;;;;;;;8.07;6.97;;;14.80;1.00;;;;;;5104728;28;20550;-58
2022/05/07 00:56:31;;;;;;;8.10;7.40;;;14.70;1.00;;;;;;5109972;28;20498;-58
2022/05/07 00:58:57;;;;;;;7.93;7.27;;;14.70;1.00;;;;;;5107650;28;20945;-58
2022/05/07 01:01:29;;;;;;;8.43;6.73;;;14.70;1.00;;;;;;5092171;28;20489;-57
2022/05/07 01:03:55;;;;;;;7.67;6.97;;;14.60;1.00;;;;;;5100938;28;20463;-59
2022/05/07 01:06:24;;;;;;;9.27;7.07;;;14.50;1.00;;;;;;5100018;28;20518;-59
2022/05/07 01:08:50;;;;;;;7.77;7.07;;;14.40;1.00;;;;;;5084312;28;20493;-58
2022/05/07 01:11:25;;;;;;;8.33;7.53;;;14.30;1.00;;;;;;5109468;28;20507;-57
2022/05/07 01:13:52;;;;;;;10.63;7.67;;;14.20;1.00;;;;;;5101851;28;20185;-58
2022/05/07 01:16:22;;;;;;;11.03;7.20;;;14.20;1.00;;;;;;5109685;28;20988;-58
2022/05/07 01:18:48;;;;;;;8.50;7.70;;;14.20;1.00;;;;;;5109659;28;20838;-57
2022/05/07 01:21:20;;;;;;;8.77;7.87;;;14.10;1.00;;;;;;5107308;28;20508;-58
2022/05/07 01:23:47;;;;;;;8.03;7.33;;;14.10;1.00;;;;;;5094752;28;20252;-60
2022/05/07 01:26:24;;;;;;;8.63;7.83;;;14.10;1.00;;;;;;5096017;28;20532;-58
2022/05/07 01:28:51;;;;;;;8.67;7.77;;;14.10;1.00;;;;;;5108653;28;20476;-57
2022/05/07 01:31:28;;;;;;;8.10;7.40;;;14.00;1.00;;;;;;5109817;28;20443;-58
2022/05/07 01:33:54;;;;;;;8.30;7.50;;;13.90;1.00;;;;;;5108015;28;20463;-58
2022/05/07 01:36:26;;;;;;;8.90;7.70;;;13.90;1.00;;;;;;5100864;28;20452;-58
2022/05/07 01:38:51;;;;;;;10.47;7.13;;;13.80;1.00;;;;;;5107911;28;20477;-58
2022/05/07 01:41:23;;;;;;;7.40;6.80;;;13.80;1.00;;;;;;5092419;28;20448;-58
2022/05/07 01:43:48;;;;;;;7.60;6.90;;;13.80;1.00;;;;;;5107907;28;20279;-58
2022/05/07 01:49:10;;;;;;;7.83;7.23;;;13.60;1.00;;;;;;5108629;28;20205;-58
2022/05/07 01:51:36;;;;;;;7.60;6.87;;;13.60;1.00;;;;;;5103282;28;20446;-58
2022/05/07 01:54:01;;;;;;;7.37;6.83;;;13.50;1.00;;;;;;5108981;28;20289;-58
2022/05/07 01:56:49;;;;;;;8.57;7.77;;;13.50;1.00;;;;;;5108553;28;20190;-59
2022/05/07 01:59:14;;;;;;;11.53;6.93;;;13.40;1.00;;;;;;5102818;28;20210;-59
2022/05/07 02:01:40;;;;;;;9.10;8.10;;;13.40;1.00;;;;;;5105859;28;20479;-57
2022/05/07 02:04:06;;;;;;;8.13;7.33;;;13.50;1.00;;;;;;5095975;28;20233;-59
2022/05/07 02:06:31;;;;;;;9.27;7.50;;;13.40;1.00;;;;;;5095146;28;20194;-58
2022/05/07 02:08:57;;;;;;;7.33;6.57;;;13.40;1.00;;;;;;5109239;28;20448;-57
2022/05/07 02:11:29;;;;;;;7.50;6.90;;;13.20;1.00;;;;;;5106462;28;20233;-59
2022/05/07 02:13:55;;;;;;;8.30;7.50;;;13.30;1.00;;;;;;5093025;28;20194;-58
2022/05/07 02:16:21;;;;;;;9.07;7.33;;;13.20;1.00;;;;;;5095424;28;20463;-60
2022/05/07 02:18:46;;;;;;;8.17;7.03;;;13.20;1.00;;;;;;5092783;28;21879;-58
2022/05/07 02:21:21;;;;;;;7.30;6.70;;;13.20;1.00;;;;;;5088117;28;20443;-58
2022/05/07 02:23:47;;;;;;;7.17;6.57;;;13.10;1.00;;;;;;5090843;28;20202;-57
2022/05/07 02:26:35;;;;;;;7.23;6.60;;;13.00;1.00;;;;;;5102800;28;20774;-59
2022/05/07 02:29:01;;;;;;;7.90;7.17;;;12.90;1.00;;;;;;5096528;28;20186;-57
2022/05/07 02:31:27;;;;;;;7.33;6.63;;;13.00;1.00;;;;;;5104248;28;20443;-58
2022/05/07 02:33:52;;;;;;;8.10;7.40;;;12.90;1.00;;;;;;5108282;28;20178;-58
2022/05/07 02:36:18;;;;;;;7.57;6.87;;;12.90;1.00;;;;;;5102991;28;20663;-59
2022/05/07 02:38:43;;;;;;;10.53;6.77;;;12.80;1.00;;;;;;5109452;28;20216;-58
2022/05/07 02:44:13;;;;;;;8.40;7.57;;;12.80;1.00;;;;;;5090056;28;20244;-58
2022/05/07 02:46:38;;;;;;;7.73;7.03;;;12.70;1.00;;;;;;5089871;28;20452;-57
2022/05/07 02:49:09;;;;;;;8.63;7.30;;;12.70;1.00;;;;;;5089746;28;20265;-57
2022/05/07 02:51:34;;;;;;;8.40;7.50;;;12.70;1.00;;;;;;5092696;28;20248;-57
2022/05/07 02:54:00;;;;;;;7.97;6.93;;;12.70;1.00;;;;;;5104164;28;21185;-57
2022/05/07 02:56:25;;;;;;;8.03;7.10;;;12.70;1.00;;;;;;5104631;28;20190;-58
2022/05/07 02:58:51;;;;;;;8.00;7.30;;;12.60;1.00;;;;;;5109038;28;20205;-58
2022/05/07 03:01:22;;;;;;;8.33;7.63;;;12.60;1.00;;;;;;5102446;28;20189;-58
2022/05/07 03:03:48;;;;;;;11.43;8.30;;;12.50;1.00;;;;;;5105291;28;20217;-57
2022/05/07 03:06:32;;;;;;;7.97;7.23;;;12.50;1.00;;;;;;5107316;28;20456;-58
2022/05/07 03:08:57;;;;;;;7.93;7.30;;;12.50;1.00;;;;;;5104671;28;20197;-58
2022/05/07 03:11:38;;;;;;;8.37;7.67;;;12.40;1.00;;;;;;5092114;28;20464;-57
2022/05/07 03:14:06;;;;;;;9.13;7.80;;;12.40;1.00;;;;;;5107275;28;20193;-57
2022/05/07 03:16:32;;;;;;;8.30;7.50;;;12.30;1.00;;;;;;5109810;28;20454;-56
2022/05/07 03:18:58;;;;;;;8.67;7.87;;;12.30;1.00;;;;;;5105146;28;20547;-58
2022/05/07 03:21:23;;;;;;;7.47;6.77;;;12.30;1.00;;;;;;5099242;28;20186;-58
2022/05/07 03:23:49;;;;;;;8.77;8.07;;;12.30;1.00;;;;;;5111016;28;20463;-58
2022/05/07 03:26:23;;;;;;;9.10;8.20;;;12.30;1.00;;;;;;5097338;28;20233;-58
2022/05/07 03:28:49;;;;;;;7.93;7.10;;;12.20;1.00;;;;;;5113369;28;20229;-57
2022/05/07 03:31:27;;;;;;;8.53;7.80;;;12.20;1.00;;;;;;5106570;28;20474;-58
2022/05/07 03:33:52;;;;;;;8.83;8.00;;;12.20;1.00;;;;;;5112767;28;20182;-58
2022/05/07 03:36:27;;;;;;;9.03;8.13;;;12.10;1.00;;;;;;5105694;28;20954;-57
2022/05/07 03:38:53;;;;;;;9.57;8.23;;;12.20;1.00;;;;;;5088438;28;20202;-57
2022/05/07 03:41:28;;;;;;;8.60;7.90;;;12.20;1.00;;;;;;5082142;28;20447;-57
2022/05/07 03:43:55;;;;;;;9.03;8.23;;;12.20;1.00;;;;;;5110407;28;20474;-57
2022/05/07 03:46:21;;;;;;;8.23;7.53;;;12.20;1.00;;;;;;5094576;28;20439;-58
2022/05/07 03:48:47;;;;;;;8.50;7.80;;;12.20;1.00;;;;;;5100829;28;20450;-58
2022/05/07 03:51:25;;;;;;;8.83;8.10;;;12.10;1.00;;;;;;5100493;28;20440;-58
2022/05/07 03:53:50;;;;;;;10.20;9.30;;;12.20;1.00;;;;;;5111154;28;20232;-57
2022/05/07 03:56:20;;;;;;;8.60;7.83;;;12.20;1.00;;;;;;5109527;28;20480;-58
2022/05/07 03:58:45;;;;;;;8.67;7.37;;;12.20;1.00;;;;;;5093506;28;20702;-57
2022/05/07 04:01:29;;;;;;;8.83;7.90;;;12.10;1.00;;;;;;5096113;28;20521;-58
2022/05/07 04:03:55;;;;;;;7.93;7.13;;;12.10;1.00;;;;;;5097206;28;20611;-58
2022/05/07 04:06:33;;;;;;;10.73;8.30;;;12.20;1.00;;;;;;5101793;28;20489;-58
2022/05/07 04:08:58;;;;;;;9.17;7.70;;;12.20;1.00;;;;;;5103878;28;20191;-56
2022/05/07 04:11:24;;;;;;;8.73;7.80;;;12.30;1.00;;;;;;5098776;28;20793;-57
2022/05/07 04:13:50;;;;;;;8.40;7.60;;;;;;;;;;5097120;28;20194;-57
2022/05/07 04:16:25;;;;;;;8.17;7.40;;;12.30;1.00;;;;;;5092646;28;20182;-58
2022/05/07 04:18:50;;;;;;;8.10;7.40;;;12.30;1.00;;;;;;5105688;28;20450;-58
2022/05/07 04:21:16;;;;;;;8.77;7.97;;;12.30;1.00;;;;;;5109797;28;20466;-57
2022/05/07 04:23:41;;;;;;;7.93;7.23;;;12.40;1.00;;;;;;5110191;28;20190;-58
2022/05/07 04:26:19;;;;;;;11.03;7.33;;;12.40;1.00;;;;;;5097028;28;20179;-57
2022/05/07 04:28:45;;;;;;;7.80;6.90;;;12.40;1.00;;;;;;5092704;28;20191;-56
2022/05/07 04:31:23;;;;;;;9.03;8.13;;;12.40;1.00;;;;;;5100049;28;20436;-57
2022/05/07 04:33:48;;;;;;;9.07;7.40;;;12.50;1.00;;;;;;5104888;28;20741;-57
2022/05/07 04:36:23;;;;;;;8.37;7.57;;;12.50;1.00;;;;;;5112176;28;20460;-57
2022/05/07 04:38:49;;;;;;;8.47;7.67;;;12.50;1.00;;;;;;5097103;28;20188;-57
2022/05/07 04:41:27;;;;;;;8.47;7.77;;;12.50;1.00;;;;;;5109783;28;20479;-57
2022/05/07 04:43:52;;;;;;;11.50;9.50;;;12.50;1.00;;;;;;5111010;28;20558;-58
2022/05/07 04:46:24;;;;;;;8.23;7.53;;;12.60;1.00;;;;;;5111377;28;20547;-57
2022/05/07 04:48:50;;;;;;;7.70;7.00;;;12.60;1.00;;;;;;5111825;28;20194;-57
2022/05/07 04:51:27;;;;;;;8.67;8.03;;;12.60;1.00;;;;;;5101743;28;20565;-58
2022/05/07 04:53:53;;;;;;;7.60;6.80;;;12.60;1.00;;;;;;5107071;28;20244;-57
2022/05/07 04:56:21;;;;;;;8.33;7.50;;;12.70;1.00;;;;;;5106764;28;20440;-57
2022/05/07 04:58:47;;;;;;;9.80;7.77;;;12.70;1.00;;;;;;5111446;28;20197;-57
2022/05/07 05:01:15;;;;;;;7.60;6.93;;;12.80;1.00;;;;;;5108763;28;20546;-57
2022/05/07 05:03:40;;;;;;;8.30;7.60;;;12.80;1.00;;;;;;5107510;28;20205;-57
2022/05/07 05:06:06;;;;;;;8.10;7.30;;;12.90;1.00;;;;;;5110326;28;20452;-57
2022/05/07 05:08:32;;;;;;;9.27;7.67;;;13.10;1.00;;;;;;5110875;28;20182;-57
2022/05/07 05:10:58;;;;;;;8.53;7.80;;;13.10;1.00;;;;;;5102640;28;20240;-58
2022/05/07 05:13:23;;;;;;;9.17;8.30;;;13.10;1.00;;;;;;5103645;28;20447;-57
2022/05/07 05:15:50;;;;;;;7.77;7.03;;;13.20;1.00;;;;;;5098111;28;20210;-56
2022/05/07 05:18:16;;;;;;;7.70;7.00;;;13.30;1.00;;;;;;5095538;28;20190;-58
2022/05/07 05:20:41;;;;;;;8.27;7.57;;;13.40;1.00;;;;;;5095289;28;20449;-59
2022/05/07 05:23:07;;;;;;;7.70;6.93;;;13.50;1.00;;;;;;5108983;28;20705;-58
2022/05/07 05:25:33;;;;;;;8.07;7.27;;;13.60;1.00;;;;;;5097662;28;20205;-57
2022/05/07 05:27:59;;;;;;;7.27;6.57;;;13.60;1.00;;;;;;5111028;28;20228;-58
2022/05/07 05:30:24;;;;;;;7.53;6.83;;;13.70;1.00;;;;;;5098548;28;20170;-56
2022/05/07 05:32:50;;;;;;;6.90;6.40;;;13.80;1.00;;;;;;5099564;28;20187;-58
2022/05/07 05:35:15;;;;;;;6.67;6.07;;;14.00;1.00;;;;;;5094260;28;20190;-58
2022/05/07 05:37:41;;;;;;;6.80;6.23;;;14.00;1.00;;;;;;5094462;28;20191;-58
2022/05/07 05:40:07;;;;;;;9.63;6.33;;;14.20;1.00;;;;;;5091768;28;20175;-58
2022/05/07 05:42:33;;;;;;;12.47;6.80;;;14.30;1.00;;;;;;5105862;28;20186;-58
2022/05/07 05:44:58;;;;;;;7.07;6.37;;;14.40;1.00;;;;;;5107579;28;20476;-57
2022/05/07 05:47:24;;;;;;;6.30;5.80;;;14.50;1.00;;;;;;5105416;28;20182;-57
2022/05/07 05:49:50;;;;;;;6.63;5.73;;;14.50;1.00;;;;;;5105429;28;20198;-59
2022/05/07 05:52:16;;;;;;;7.73;6.90;;;14.60;1.00;;;;;;5106101;28;20435;-57
2022/05/07 05:54:42;;;;;;;8.13;6.13;;;14.70;1.00;;;;;;5101732;28;20518;-58
2022/05/07 05:57:07;;;;;;;7.47;6.90;;;14.80;1.00;;;;;;5093321;28;20592;-58
2022/05/07 05:59:33;;;;;;;7.17;6.50;;;14.90;1.00;;;;;;5090954;28;20187;-57
2022/05/07 06:01:58;;;;;;;6.60;6.10;;;14.90;1.00;;;;;;5102160;28;20190;-58
2022/05/07 06:04:24;;;;;;;6.93;6.33;;;14.90;1.00;;;;;;5096995;28;20544;-57
2022/05/07 06:06:49;;;;;;;8.00;6.73;;;15.00;1.00;;;;;;5107187;28;20536;-58
2022/05/07 06:09:15;;;;;;;7.50;6.80;;;15.00;1.00;;;;;;5104578;28;20186;-58
2022/05/07 06:11:41;;;;;;;8.03;7.27;;;15.10;1.00;;;;;;5110028;28;20189;-59
2022/05/07 06:14:07;;;;;;;6.27;5.83;;;15.20;1.00;;;;;;5101701;28;20213;-58
2022/05/07 06:16:33;;;;;;;6.70;6.10;;;15.30;1.00;;;;;;5102542;28;20459;-59
2022/05/07 06:18:59;;;;;;;7.57;6.27;;;15.50;1.00;;;;;;5100611;28;20455;-58
2022/05/07 06:21:28;;;;;;;8.17;5.70;;;15.60;1.00;;;;;;5102787;28;20320;-58
2022/05/07 06:23:53;;;;;;;6.30;5.70;;;15.70;1.00;;;;;;5102377;28;21020;-58
2022/05/07 06:29:08;;;;;;;7.70;5.67;;;16.10;1.00;;;;;;5107468;28;20250;-59
2022/05/07 06:31:34;;;;;;;6.90;6.30;;;16.10;1.00;;;;;;5100006;28;20519;-58
2022/05/07 06:33:59;;;;;;;5.73;5.30;;;16.20;1.00;;;;;;5098573;28;20182;-59
2022/05/07 06:36:31;;;;;;;6.67;6.07;;;16.30;1.00;;;;;;5104371;28;20194;-57
2022/05/07 06:38:57;;;;;;;9.10;5.83;;;16.30;1.00;;;;;;5103011;28;20194;-59
2022/05/07 06:41:23;;;;;;;6.37;5.77;;;16.40;1.00;;;;;;5104068;28;20443;-58
2022/05/07 06:43:48;;;;;;;5.87;5.43;;;16.60;1.00;;;;;;5103838;28;20476;-58
2022/05/07 06:46:20;;;;;;;6.90;5.27;;;16.70;1.00;;;;;;5100398;28;20455;-58
2022/05/07 06:48:45;;;;;;;5.57;5.17;;;16.90;1.00;;;;;;5101490;28;20749;-58
2022/05/07 06:51:39;;;;;;;7.07;6.20;;;17.00;1.00;;;;;;5107070;28;20542;-59
2022/05/07 06:54:04;;;;;;;6.13;5.53;;;17.30;1.00;;;;;;5107266;28;20186;-58
2022/05/07 06:56:30;;;;;;;6.27;5.60;;;17.30;1.00;;;;;;5110769;28;20466;-59
2022/05/07 06:58:55;;;;;;;6.33;5.70;;;17.50;1.00;;;;;;5113756;28;20589;-58
2022/05/07 07:01:52;;;;;;;6.40;5.90;;;17.60;1.00;;;;;;5110264;28;20182;-57
2022/05/07 07:04:18;;;;;;;6.10;5.60;;;17.70;1.00;;;;;;5114510;28;20210;-59
2022/05/07 07:06:43;;;;;;;5.50;5.00;;;17.80;1.00;;;;;;5107275;28;20790;-58
2022/05/07 07:09:09;;;;;;;6.60;5.90;;;18.00;1.00;;;;;;5107906;28;21048;-58
2022/05/07 07:11:34;;;;;;;5.60;5.20;;;18.30;1.00;;;;;;5108458;28;20192;-58
2022/05/07 07:14:02;;;;;;;6.33;4.90;;;18.40;1.00;;;;;;5114554;28;20198;-59
2022/05/07 07:16:29;;;;;;;5.67;5.10;;;18.30;1.00;;;;;;5111062;28;20194;-58
2022/05/07 07:18:54;;;;;;;5.73;5.13;;;18.60;1.00;;;;;;5103891;28;20452;-59
2022/05/07 07:21:20;;;;;;;7.60;5.10;;;18.60;1.00;;;;;;5116743;28;20436;-60
2022/05/07 07:23:46;;;;;;;5.33;4.83;;;18.70;1.00;;;;;;5103694;28;20206;-60
2022/05/07 07:26:18;;;;;;;5.43;4.93;;;18.70;1.00;;;;;;5100355;28;20190;-60
2022/05/07 07:28:43;;;;;;;5.63;5.13;;;18.80;1.00;;;;;;5096784;28;20465;-60
2022/05/07 07:33:38;;;;;;;7.30;5.17;;;19.10;1.00;;;;;;5116831;28;20181;-60
2022/05/07 07:36:05;;;;;;;6.10;5.10;;;19.30;1.00;;;;;;5114657;28;20454;-61
2022/05/07 07:38:30;;;;;;;5.73;4.70;;;19.30;1.00;;;;;;5114407;28;20440;-60
2022/05/07 07:40:56;;;;;;;6.00;5.27;;;19.40;1.00;;;;;;5116297;28;20713;-60
2022/05/07 07:43:22;;;;;;;4.73;4.33;;;19.40;1.00;;;;;;5113813;28;20221;-60
2022/05/07 07:48:32;;;;;;;5.40;4.90;;;19.60;1.00;;;;;;5108308;28;20208;-59
2022/05/07 07:50:58;;;;;;;5.77;5.20;;;19.90;1.00;;;;;;5113379;28;20435;-59
2022/05/07 07:53:24;;;;;;;5.63;5.13;;;20.30;1.00;;;;;;5110330;28;20183;-60
2022/05/07 07:55:50;;;;;;;5.80;4.70;;;20.60;1.00;;;;;;5100232;28;20221;-60
2022/05/07 07:58:17;;;;;;;4.77;4.37;;;20.60;1.00;;;;;;5099692;28;20182;-60
2022/05/07 08:00:44;;;;;;;4.20;3.80;;;20.80;1.00;;;;;;5110138;28;20439;-60
2022/05/07 08:03:14;;;;;;;4.60;4.20;;;21.10;1.00;;;;;;5094866;28;20441;-59
2022/05/07 08:05:42;;;;;;;4.47;4.07;;;21.00;1.00;;;;;;5092643;28;20740;-60
2022/05/07 08:13:39;;;;;;;6.03;3.67;;;21.40;1.00;;;;;;5109554;28;20497;-60
2022/05/07 08:16:20;;;;;;;5.37;3.50;;;21.50;1.00;;;;;;5096121;28;20440;-60
2022/05/07 08:18:46;;;;;;;3.80;3.43;;;21.70;1.00;;;;;;5101829;28;20440;-61
2022/05/07 08:21:18;;;;;;;5.80;3.10;;;21.50;1.00;;;;;;5105162;28;20480;-61
2022/05/07 08:23:43;;;;;;;3.43;2.30;;;21.50;1.00;;;;;;5111083;28;20937;-59
2022/05/07 08:26:21;;;;;;;4.30;2.40;;;21.70;1.00;;;;;;5106006;28;20476;-60
2022/05/07 08:28:47;;;;;;;3.40;2.77;;;21.80;1.00;;;;;;5094191;28;20197;-61
2022/05/07 08:31:38;;;;;;;2.87;2.30;;;21.80;1.00;;;;;;5092788;28;20445;-59
2022/05/07 08:34:03;;;;;;;2.90;2.30;;;21.90;1.00;;;;;;5108854;28;20444;-62
2022/05/07 08:36:29;;;;;;;3.60;2.50;;;21.90;1.00;;;;;;5100504;28;20484;-59
2022/05/07 08:38:55;;;;;;;3.50;2.30;;;22.20;1.00;;;;;;5096226;28;20648;-61
2022/05/07 08:41:27;;;;;;;5.20;3.17;;;22.30;1.00;;;;;;5112223;28;20451;-60
2022/05/07 08:43:53;;;;;;;3.87;2.60;;;22.90;1.00;;;;;;5105071;28;20235;-59
2022/05/07 08:46:28;;;;;;;5.70;2.70;;;23.00;1.00;;;;;;5112615;28;20489;-60
2022/05/07 08:48:54;;;;;;;3.47;2.50;;;22.80;1.00;;;;;;5100609;28;20193;-61
2022/05/07 08:51:21;;;;;;;2.47;2.27;;;22.80;1.00;;;;;;5092122;28;21197;-60
2022/05/07 08:53:53;;;;;;;2.57;2.27;;;22.90;1.00;;;;;;5099925;28;20948;-59
2022/05/07 08:56:19;;;;;;;3.20;2.40;;;22.90;1.00;;;;;;5098505;28;20475;-60
2022/05/07 08:58:52;;;;;;;3.17;2.30;;;23.10;1.00;;;;;;5093429;28;20473;-61
2022/05/07 09:01:36;;;;;;;3.10;1.90;;;23.20;1.00;;;;;;5091725;28;20782;-60
2022/05/07 09:04:11;;;;;;;2.40;2.20;;;23.50;1.00;;;;;;5107450;28;20562;-60
2022/05/07 09:06:57;;;;;;;3.00;2.20;;;23.50;1.00;;;;;;5111023;28;20809;-61
2022/05/07 09:09:23;;;;;;;5.23;2.30;;;23.30;1.00;;;;;;5109817;28;20455;-60
2022/05/07 09:11:49;;;;;;;3.37;2.47;;;23.20;1.00;;;;;;5102812;28;20440;-59
2022/05/07 09:14:18;;;;;;;2.37;2.00;;;23.10;1.00;;;;;;5100461;28;20188;-58
2022/05/07 09:16:50;;;;;;;3.10;2.00;;;23.10;1.00;;;;;;5104487;28;20802;-60
2022/05/07 09:19:20;;;;;;;4.03;2.03;;;23.10;1.00;;;;;;5110107;28;20455;-60
2022/05/07 09:21:47;;;;;;;2.90;1.93;;;23.10;1.00;;;;;;5110055;28;20581;-60
2022/05/07 09:24:13;;;;;;;1.97;1.73;;;23.20;1.00;;;;;;5110013;28;20557;-58
2022/05/07 09:26:43;;;;;;;4.90;2.13;;;23.30;1.00;;;;;;5109870;28;20452;-60
2022/05/07 09:29:10;;;;;;;2.00;1.50;;;23.10;1.00;;;;;;5095653;28;20217;-60
2022/05/07 09:31:41;;;;;;;2.00;1.60;;;23.30;1.00;;;;;;5103864;28;20431;-59
2022/05/07 09:37:28;;;;;;;2.73;2.13;;;;;;;;;;5104936;28;20450;-61
2022/05/07 09:39:54;;;;;;;2.50;2.07;;;23.20;1.00;;;;;;5094292;28;20436;-62
2022/05/07 09:42:21;;;;;;;3.37;2.13;;;23.10;1.00;;;;;;5097726;28;20933;-62
2022/05/07 09:44:47;;;;;;;3.37;1.67;;;23.00;1.00;;;;;;5098930;28;20718;-62
2022/05/07 09:47:14;;;;;;;5.73;1.90;;;23.00;1.00;;;;;;5099250;28;20447;-61
2022/05/07 09:52:29;;;;;;;2.47;1.83;;;23.60;1.00;;;;;;5094705;28;20435;-62
2022/05/07 09:57:40;;;;;;;2.60;1.87;;;;;;;;;;5093697;28;20460;-61
2022/05/07 10:00:10;;;;;;;2.37;2.17;;;24.70;1.00;;;;;;5109094;28;20932;-62
2022/05/07 10:02:39;;;;;;;2.10;1.90;;;24.60;1.00;;;;;;5090501;28;20515;-61
2022/05/07 10:05:22;;;;;;;2.77;1.87;;;24.70;1.00;;;;;;5092367;28;20471;-62
2022/05/07 10:08:01;;;;;;;2.07;1.87;;;25.40;1.00;;;;;;5090512;28;20437;-62
2022/05/07 10:10:29;;;;;;;3.10;2.10;;;25.60;1.00;;;;;;5098666;28;20956;-61
2022/05/07 10:12:59;;;;;;;2.53;2.03;;;25.90;1.00;;;;;;5091239;28;20490;-62
2022/05/07 10:15:25;;;;;;;3.70;2.00;;;26.10;1.00;;;;;;5104517;28;20426;-63
2022/05/07 10:18:14;;;;;;;2.00;1.80;;;25.60;1.00;;;;;;5110723;28;20478;-61
2022/05/07 10:20:44;;;;;;;2.33;1.97;;;25.10;1.00;;;;;;5109597;28;21296;-61
2022/05/07 10:23:12;;;;;;;2.10;1.90;;;25.40;1.00;;;;;;5107998;28;20568;-63
2022/05/07 10:25:39;;;;;;;3.17;1.80;;;25.80;1.00;;;;;;5092397;28;20937;-57
2022/05/07 10:28:22;;;;;;;3.50;2.10;;;26.10;1.00;;;;;;5090722;28;20488;-58
2022/05/07 10:30:49;;;;;;;4.90;2.53;;;26.20;1.00;;;;;;5091792;28;20432;-59
2022/05/07 10:33:16;;;;;;;5.77;2.30;;;26.20;1.00;;;;;;5099349;28;20482;-58
2022/05/07 10:35:43;;;;;;;2.20;2.00;;;25.70;1.00;;;;;;5109066;28;20455;-58
2022/05/07 10:38:09;;;;;;;2.77;2.50;;;25.60;1.00;;;;;;5106884;28;20452;-58
2022/05/07 10:40:35;;;;;;;2.50;2.30;;;25.80;1.00;;;;;;5110004;28;20445;-59
2022/05/07 10:43:00;;;;;;;2.97;2.67;;;25.80;1.00;;;;;;5109959;28;20478;-58
2022/05/07 10:45:29;;;;;;;5.63;2.50;;;25.80;1.00;;;;;;5096646;28;20239;-58
2022/05/07 10:47:55;;;;;;;4.47;2.50;;;25.50;1.00;;;;;;5108858;28;20252;-58
2022/05/07 10:50:24;;;;;;;3.73;2.43;;;25.40;1.00;;;;;;5099782;28;20724;-59
2022/05/07 10:52:56;;;;;;;2.90;2.70;;;25.20;1.00;;;;;;5106105;28;20573;-59
2022/05/07 10:55:27;;;;;;;5.23;2.70;;;25.00;1.00;;;;;;5099999;28;20476;-58
2022/05/07 10:57:55;;;;;;;5.00;2.50;;;24.30;1.00;;;;;;5096285;28;20467;-57
2022/05/07 11:00:22;;;;;;;2.87;2.57;;;23.80;1.00;;;;;;5110248;28;20462;-58
2022/05/07 11:02:49;;;;;;;4.10;2.80;;;23.80;1.00;;;;;;5108231;28;20444;-58
2022/05/07 11:05:16;;;;;;;7.20;2.80;;;23.60;1.00;;;;;;5109845;28;20467;-58
2022/05/07 11:07:43;;;;;;;4.57;3.23;;;23.50;1.00;;;;;;5091749;28;20447;-57
2022/05/07 11:10:10;;;;;;;3.97;2.50;;;23.10;1.00;;;;;;5105247;28;20439;-60
2022/05/07 11:12:36;;;;;;;5.33;3.03;;;22.80;1.00;;;;;;5110015;28;20895;-57
2022/05/07 11:15:08;;;;;;;3.03;2.73;;;23.00;1.00;;;;;;5110069;28;20436;-58
2022/05/07 11:17:36;;;;;;;2.77;2.57;;;23.20;1.00;;;;;;5110018;28;20440;-58
2022/05/07 11:20:03;;;;;;;2.90;2.67;;;23.90;1.00;;;;;;5109996;28;20435;-57
2022/05/07 11:25:23;;;;;;;2.67;2.43;;;24.10;1.00;;;;;;5098072;28;20857;-58
2022/05/07 11:27:51;;;;;;;2.57;2.37;;;24.10;1.00;;;;;;5110010;28;20471;-57
2022/05/07 11:30:16;;;;;;;2.50;2.30;;;24.30;1.00;;;;;;5109805;28;20190;-59
2022/05/07 11:32:42;;;;;;;2.33;2.13;;;24.60;1.00;;;;;;5109380;28;20492;-59
2022/05/07 11:35:09;;;;;;;3.30;2.30;;;25.10;1.00;;;;;;5107379;28;20769;-59
2022/05/07 11:40:28;;;;;;;2.40;2.20;;;25.40;1.00;;;;;;5113996;28;20436;-59
2022/05/07 11:45:46;;;;;;;3.10;2.53;;;25.40;1.00;;;;;;5113529;28;20524;-58
2022/05/07 11:48:14;;;;;;;3.70;2.23;;;25.50;1.00;;;;;;5113640;28;20447;-59
2022/05/07 11:51:00;;;;;;;2.23;2.03;;;25.00;1.00;;;;;;5113448;28;20189;-57
2022/05/07 11:53:35;;;;;;;3.80;2.60;;;24.60;1.00;;;;;;5113219;28;20467;-58
2022/05/07 11:56:10;;;;;;;2.90;2.20;;;24.20;1.00;;;;;;5095780;28;20452;-59
2022/05/07 11:58:44;;;;;;;2.57;2.27;;;23.90;1.00;;;;;;5109744;28;20435;-58
2022/05/07 12:04:32;;;;;;;2.23;1.73;;;23.60;1.00;;;;;;5113401;28;20482;-58
2022/05/07 12:07:40;;;;;;;3.90;2.30;;;23.50;1.00;;;;;;5113323;28;20462;-58
2022/05/07 12:10:06;;;;;;;3.13;1.83;;;23.50;1.00;;;;;;5064302;28;21080;-59
2022/05/07 12:12:32;;;;;;;2.53;2.27;;;23.90;1.00;;;;;;5097469;28;20440;-58
2022/05/07 12:14:59;;;;;;;3.77;2.47;;;23.90;1.00;;;;;;5094784;28;20455;-58
2022/05/07 12:20:09;;;;;;;3.30;2.20;;;;;;;;;;5096310;28;20939;-59
2022/05/07 12:31:12;;;;;;;1.67;1.57;;;25.20;1.00;;;;;;5092219;28;21246;-59
2022/05/07 12:33:38;;;;;;;3.20;2.30;;;25.50;1.00;;;;;;5092477;28;20437;-58
2022/05/07 12:36:03;;;;;;;3.87;2.60;;;25.60;1.00;;;;;;5092000;28;20182;-58
2022/05/07 12:38:29;;;;;;;2.30;2.10;;;25.80;1.00;;;;;;5092526;28;20185;-59
2022/05/07 12:40:54;;;;;;;6.03;2.53;;;26.10;1.00;;;;;;5092149;28;20663;-60
2022/05/07 12:43:20;;;;;;;2.70;2.00;;;25.90;1.00;;;;;;5091955;28;20529;-59
2022/05/07 12:45:46;;;;;;;2.27;2.07;;;25.80;1.00;;;;;;5110606;28;20223;-58
2022/05/07 12:48:32;;;;;;;2.57;2.10;;;25.70;1.00;;;;;;5112440;28;20217;-58
2022/05/07 12:50:58;;;;;;;2.93;2.17;;;25.60;1.00;;;;;;5112538;28;20451;-58
2022/05/07 12:53:24;;;;;;;3.00;1.70;;;25.60;1.00;;;;;;5112255;28;20449;-57
2022/05/07 12:55:50;;;;;;;5.40;2.20;;;25.60;1.00;;;;;;5112509;28;20208;-58
2022/05/07 12:58:16;;;;;;;5.03;2.60;;;25.40;1.00;;;;;;5112208;28;20227;-59
2022/05/07 13:00:42;;;;;;;4.83;2.47;;;25.50;1.00;;;;;;5112393;28;20578;-58
2022/05/07 13:03:09;;;;;;;3.20;2.10;;;25.50;1.00;;;;;;5112292;28;20442;-59
2022/05/07 13:05:35;;;;;;;2.07;1.97;;;25.80;1.00;;;;;;5108750;28;20311;-59
2022/05/07 13:08:03;;;;;;;2.70;2.30;;;24.90;1.00;;;;;;5091998;28;20790;-58
2022/05/07 13:10:30;;;;;;;3.10;2.10;;;24.80;1.00;;;;;;5094399;28;20445;-58
2022/05/07 13:13:23;;;;;;;4.53;1.80;;;24.60;1.00;;;;;;5091905;28;20470;-58
2022/05/07 13:15:49;;;;;;;3.13;2.40;;;24.40;1.00;;;;;;5091628;28;20440;-59
2022/05/07 13:18:14;;;;;;;2.17;2.00;;;24.60;1.00;;;;;;5091748;28;20544;-59
2022/05/07 13:20:40;;;;;;;4.47;1.93;;;24.90;1.00;;;;;;5091220;28;20419;-58
2022/05/07 13:23:05;;;;;;;3.60;2.20;;;24.80;1.00;;;;;;5091473;28;20683;-59
2022/05/07 13:25:31;;;;;;;1.90;1.70;;;24.50;1.00;;;;;;5091291;28;20226;-58
2022/05/07 13:30:22;;;;;;;2.50;2.03;;;24.80;1.00;;;;;;5110511;28;20170;-58
2022/05/07 13:32:48;;;;;;;5.53;2.83;;;;;;;;;;5111503;28;20207;-59
2022/05/07 13:35:15;;;;;;;2.83;2.10;;;24.80;1.00;;;;;;5111417;28;20266;-59
2022/05/07 13:38:04;;;;;;;3.23;2.20;;;25.10;1.00;;;;;;5111265;28;21024;-59
2022/05/07 13:40:30;;;;;;;3.07;2.07;;;;;;;;;;5107342;28;20451;-59
2022/05/07 13:42:55;;;;;;;3.60;1.93;;;26.00;1.00;;;;;;5105476;28;20448;-59
2022/05/07 13:45:21;;;;;;;2.20;1.70;;;26.30;1.00;;;;;;5090905;28;20479;-60
2022/05/07 13:47:46;;;;;;;2.10;2.00;;;26.40;1.00;;;;;;5092190;28;20203;-59
2022/05/07 13:50:12;;;;;;;3.37;2.07;;;26.40;1.00;;;;;;5111422;28;20700;-59
2022/05/07 13:52:58;;;;;;;2.77;2.10;;;26.50;1.00;;;;;;5104989;28;20197;-58
2022/05/07 13:55:23;;;;;;;2.50;2.30;;;26.80;1.00;;;;;;5094338;28;20239;-58
2022/05/07 13:58:18;;;;;;;3.30;2.07;;;27.00;1.00;;;;;;5099107;28;20534;-59
2022/05/07 14:00:46;;;;;;;3.93;2.60;;;27.10;1.00;;;;;;5099567;28;20205;-59
2022/05/07 14:03:12;;;;;;;2.20;1.83;;;26.60;1.00;;;;;;5073125;28;20505;-59